createdAt,value
2018-04-15T00:02:17.854Z,12.40
2018-04-15T00:04:46.113Z,12.40
2018-04-15T00:07:14.350Z,12.40
2018-04-15T00:09:43.341Z,12.40
2018-04-15T00:12:11.572Z,12.40
2018-04-15T00:14:39.804Z,12.50
2018-04-15T00:17:08.097Z,12.50
2018-04-15T00:19:36.318Z,12.40
2018-04-15T00:22:04.568Z,12.40
2018-04-15T00:24:32.804Z,12.50
2018-04-15T00:27:01.038Z,12.60
2018-04-15T00:29:29.285Z,12.60
2018-04-15T00:31:57.514Z,12.50
2018-04-15T00:34:25.760Z,12.50
2018-04-15T00:36:53.997Z,12.50
2018-04-15T00:39:22.223Z,12.50
2018-04-15T00:41:51.238Z,12.50
2018-04-15T00:44:19.479Z,12.50
2018-04-15T00:46:47.734Z,12.50
2018-04-15T00:49:15.953Z,12.50
2018-04-15T00:51:44.201Z,12.40
2018-04-15T00:54:17.393Z,12.30
2018-04-15T00:56:45.645Z,12.30
2018-04-15T00:59:14.712Z,12.30
2018-04-15T01:01:42.941Z,12.30
2018-04-15T01:04:11.165Z,12.30
2018-04-15T01:06:39.426Z,12.30
2018-04-15T01:09:08.425Z,12.40
2018-04-15T01:11:37.421Z,12.40
2018-04-15T01:14:05.662Z,12.40
2018-04-15T01:16:33.912Z,12.30
2018-04-15T01:19:02.934Z,12.40
2018-04-15T01:21:31.197Z,12.40
2018-04-15T01:23:59.418Z,12.40
2018-04-15T01:26:27.664Z,12.50
2018-04-15T01:28:55.900Z,12.50
2018-04-15T01:31:24.170Z,12.40
2018-04-15T01:33:52.403Z,12.40
2018-04-15T01:36:20.637Z,12.30
2018-04-15T01:38:49.652Z,12.30
2018-04-15T01:41:18.646Z,12.40
2018-04-15T01:43:47.653Z,12.40
2018-04-15T01:46:16.664Z,12.40
2018-04-15T01:48:44.885Z,12.40
2018-04-15T01:51:13.121Z,12.40
2018-04-15T01:53:41.342Z,12.40
2018-04-15T01:56:09.564Z,12.40
2018-04-15T01:58:37.796Z,12.40
2018-04-15T02:01:06.817Z,12.40
2018-04-15T02:03:35.820Z,12.40
2018-04-15T02:06:04.809Z,12.30
2018-04-15T02:08:33.060Z,12.30
2018-04-15T02:11:01.303Z,12.20
2018-04-15T02:13:30.322Z,12.50
2018-04-15T02:15:58.567Z,12.50
2018-04-15T02:18:26.794Z,12.50
2018-04-15T02:20:55.046Z,12.40
2018-04-15T02:23:23.292Z,12.30
2018-04-15T02:25:51.509Z,12.40
2018-04-15T02:28:19.746Z,12.40
2018-04-15T02:30:48.022Z,12.50
2018-04-15T02:33:17.038Z,12.40
2018-04-15T02:35:45.258Z,12.30
2018-04-15T02:38:13.508Z,12.20
2018-04-15T02:40:42.533Z,12.10
2018-04-15T02:43:10.781Z,12.10
2018-04-15T02:45:39.010Z,12.20
2018-04-15T02:48:07.232Z,12.20
2018-04-15T02:50:35.474Z,12.10
2018-04-15T02:53:04.467Z,12.10
2018-04-15T02:55:33.473Z,12.10
2018-04-15T02:58:02.492Z,12.00
2018-04-15T03:00:31.533Z,12.00
2018-04-15T03:02:59.758Z,12.00
2018-04-15T03:05:27.993Z,12.00
2018-04-15T03:07:56.217Z,11.90
2018-04-15T03:10:24.490Z,12.00
2018-04-15T03:12:52.741Z,12.10
2018-04-15T03:15:21.010Z,12.00
2018-04-15T03:17:50.105Z,11.90
2018-04-15T03:20:18.351Z,11.90
2018-04-15T03:22:46.564Z,11.80
2018-04-15T03:25:14.785Z,11.80
2018-04-15T03:27:43.774Z,11.70
2018-04-15T03:30:12.006Z,11.70
2018-04-15T03:32:40.243Z,11.80
2018-04-15T03:35:08.481Z,11.80
2018-04-15T03:37:36.733Z,11.80
2018-04-15T03:40:05.725Z,11.70
2018-04-15T03:42:33.965Z,11.70
2018-04-15T03:45:02.194Z,11.70
2018-04-15T03:47:30.429Z,11.70
2018-04-15T03:49:58.653Z,11.70
2018-04-15T03:52:26.906Z,11.70
2018-04-15T03:54:55.140Z,11.70
2018-04-15T03:57:23.369Z,11.60
2018-04-15T03:59:52.362Z,11.60
2018-04-15T04:02:20.606Z,11.60
2018-04-15T04:04:48.865Z,11.60
2018-04-15T04:07:17.084Z,11.60
2018-04-15T04:09:45.327Z,11.60
2018-04-15T04:12:14.325Z,11.60
2018-04-15T04:14:43.426Z,11.60
2018-04-15T04:17:11.642Z,11.60
2018-04-15T04:19:51.793Z,11.60
2018-04-15T04:22:32.817Z,11.60
2018-04-15T04:25:13.023Z,11.50
2018-04-15T04:27:41.254Z,11.50
2018-04-15T04:30:09.508Z,11.50
2018-04-15T04:32:37.741Z,11.50
2018-04-15T04:35:05.981Z,11.50
2018-04-15T04:37:34.218Z,11.50
2018-04-15T04:40:02.447Z,11.50
2018-04-15T04:42:31.441Z,11.50
2018-04-15T04:44:59.718Z,11.50
2018-04-15T04:47:27.969Z,11.50
2018-04-15T04:49:56.198Z,11.60
2018-04-15T04:52:24.429Z,11.70
2018-04-15T04:54:52.673Z,11.80
2018-04-15T04:57:20.905Z,11.80
2018-04-15T04:59:49.905Z,11.60
2018-04-15T05:02:18.224Z,11.60
2018-04-15T05:04:46.449Z,11.60
2018-04-15T05:07:14.687Z,11.60
2018-04-15T05:09:43.702Z,11.60
2018-04-15T05:12:11.958Z,11.60
2018-04-15T05:14:40.165Z,11.60
2018-04-15T05:17:09.180Z,11.60
2018-04-15T05:19:37.405Z,11.70
2018-04-15T05:22:05.660Z,11.70
2018-04-15T05:24:34.636Z,11.60
2018-04-15T05:27:02.932Z,11.60
2018-04-15T05:29:31.145Z,11.50
2018-04-15T05:31:59.385Z,11.50
2018-04-15T05:34:27.605Z,11.50
2018-04-15T05:36:56.605Z,11.50
2018-04-15T05:39:25.614Z,11.50
2018-04-15T05:41:53.855Z,11.50
2018-04-15T05:44:22.110Z,11.50
2018-04-15T05:46:50.361Z,11.60
2018-04-15T05:49:18.589Z,11.70
2018-04-15T05:51:46.860Z,11.60
2018-04-15T05:54:15.105Z,11.70
2018-04-15T05:56:43.335Z,11.60
2018-04-15T05:59:12.336Z,11.50
2018-04-15T06:01:40.561Z,11.50
2018-04-15T06:04:08.813Z,11.50
2018-04-15T06:06:37.860Z,11.60
2018-04-15T06:09:06.105Z,11.60
2018-04-15T06:11:35.121Z,11.50
2018-04-15T06:14:04.105Z,11.50
2018-04-15T06:16:32.341Z,11.50
2018-04-15T06:19:00.581Z,11.50
2018-04-15T06:21:28.801Z,11.60
2018-04-15T06:23:57.025Z,11.50
2018-04-15T06:26:25.281Z,11.40
2018-04-15T06:28:53.524Z,11.50
2018-04-15T06:31:21.845Z,11.60
2018-04-15T06:33:50.852Z,11.60
2018-04-15T06:36:19.848Z,11.60
2018-04-15T06:38:48.857Z,11.70
2018-04-15T06:41:17.870Z,11.60
2018-04-15T06:43:46.888Z,11.60
2018-04-15T06:46:15.158Z,11.60
2018-04-15T06:48:44.656Z,11.70
2018-04-15T06:51:12.885Z,11.70
2018-04-15T06:53:41.133Z,11.80
2018-04-15T06:56:09.378Z,11.70
2018-04-15T06:58:37.600Z,11.80
2018-04-15T07:01:05.825Z,11.70
2018-04-15T07:03:34.180Z,11.80
2018-04-15T07:06:02.388Z,11.70
2018-04-15T07:08:31.397Z,11.80
2018-04-15T07:10:59.637Z,11.70
2018-04-15T07:13:27.943Z,11.80
2018-04-15T07:15:56.193Z,11.90
2018-04-15T07:18:25.196Z,11.80
2018-04-15T07:20:53.501Z,11.80
2018-04-15T07:23:21.758Z,11.80
2018-04-15T07:25:50.908Z,11.80
2018-04-15T07:28:19.162Z,11.90
2018-04-15T07:30:48.201Z,11.90
2018-04-15T07:33:16.446Z,11.80
2018-04-15T07:35:45.447Z,11.90
2018-04-15T07:38:15.423Z,11.80
2018-04-15T07:40:43.659Z,11.80
2018-04-15T07:43:12.657Z,11.80
2018-04-15T07:45:41.245Z,11.70
2018-04-15T07:48:09.445Z,11.80
2018-04-15T07:50:38.469Z,11.80
2018-04-15T07:53:06.713Z,11.70
2018-04-15T07:55:34.924Z,11.80
2018-04-15T07:58:03.149Z,11.70
2018-04-15T08:00:31.409Z,11.80
2018-04-15T08:02:59.634Z,11.80
2018-04-15T08:05:27.881Z,11.80
2018-04-15T08:07:56.876Z,11.80
2018-04-15T08:10:25.121Z,11.80
2018-04-15T08:12:53.454Z,11.80
2018-04-15T08:15:21.697Z,11.80
2018-04-15T08:17:49.990Z,11.80
2018-04-15T08:20:18.200Z,11.80
2018-04-15T08:22:46.423Z,11.80
2018-04-15T08:25:15.477Z,12.00
2018-04-15T08:27:43.702Z,12.00
2018-04-15T08:30:11.946Z,12.00
2018-04-15T08:32:40.169Z,12.10
2018-04-15T08:35:08.412Z,12.00
2018-04-15T08:37:36.641Z,12.00
2018-04-15T08:40:04.865Z,11.90
2018-04-15T08:42:33.089Z,12.00
2018-04-15T08:45:01.342Z,12.00
2018-04-15T08:47:30.344Z,12.00
2018-04-15T08:49:59.346Z,12.00
2018-04-15T08:52:28.332Z,12.10
2018-04-15T08:54:56.557Z,12.10
2018-04-15T08:57:24.792Z,12.20
2018-04-15T08:59:53.021Z,12.20
2018-04-15T09:02:22.046Z,12.20
2018-04-15T09:04:50.852Z,12.20
2018-04-15T09:07:19.823Z,12.20
2018-04-15T09:09:48.070Z,12.10
2018-04-15T09:12:16.290Z,12.20
2018-04-15T09:14:44.518Z,12.20
2018-04-15T09:17:12.798Z,12.20
2018-04-15T09:19:41.768Z,12.20
2018-04-15T09:22:10.044Z,12.20
2018-04-15T09:24:38.269Z,12.30
2018-04-15T09:27:07.259Z,12.30
2018-04-15T09:29:35.547Z,12.20
2018-04-15T09:32:03.764Z,12.30
2018-04-15T09:34:32.005Z,12.30
2018-04-15T09:37:00.245Z,12.30
2018-04-15T09:39:28.465Z,12.30
2018-04-15T09:41:56.734Z,12.30
2018-04-15T09:44:24.993Z,12.30
2018-04-15T09:46:53.986Z,12.30
2018-04-15T09:49:22.981Z,12.30
2018-04-15T09:51:51.237Z,12.30
2018-04-15T09:54:20.240Z,12.30
2018-04-15T09:56:48.529Z,12.40
2018-04-15T09:59:16.798Z,12.40
2018-04-15T10:01:45.809Z,12.40
2018-04-15T10:04:14.778Z,12.40
2018-04-15T10:06:43.756Z,12.30
2018-04-15T10:09:11.994Z,12.30
2018-04-15T10:11:40.235Z,12.40
2018-04-15T10:14:08.477Z,12.40
2018-04-15T10:16:36.722Z,12.40
2018-04-15T10:19:04.954Z,12.30
2018-04-15T10:21:33.193Z,12.40
2018-04-15T10:24:01.491Z,12.40
2018-04-15T10:26:29.684Z,12.50
2018-04-15T10:28:58.677Z,12.60
2018-04-15T10:31:26.912Z,12.50
2018-04-15T10:33:55.213Z,12.60
2018-04-15T10:36:23.647Z,12.50
2018-04-15T10:38:51.860Z,12.50
2018-04-15T10:41:20.861Z,12.60
2018-04-15T10:43:49.850Z,12.70
2018-04-15T10:46:18.082Z,12.60
2018-04-15T10:48:46.317Z,12.70
2018-04-15T10:51:14.549Z,12.70
2018-04-15T10:53:42.770Z,12.70
2018-04-15T10:56:11.013Z,12.60
2018-04-15T10:58:40.001Z,12.70
2018-04-15T11:01:09.017Z,12.70
2018-04-15T11:03:38.037Z,12.70
2018-04-15T11:06:07.038Z,12.70
2018-04-15T11:08:39.174Z,12.70
2018-04-15T11:11:07.397Z,12.70
2018-04-15T11:13:36.407Z,12.70
2018-04-15T11:16:05.392Z,12.70
2018-04-15T11:18:33.661Z,12.70
2018-04-15T11:21:01.935Z,12.70
2018-04-15T11:23:30.161Z,12.70
2018-04-15T11:25:58.386Z,12.80
2018-04-15T11:28:26.610Z,12.80
2018-04-15T11:30:54.851Z,12.80
2018-04-15T11:33:23.114Z,12.90
2018-04-15T11:35:51.353Z,12.90
2018-04-15T11:38:19.637Z,13.00
2018-04-15T11:40:48.588Z,13.10
2018-04-15T11:43:16.829Z,13.00
2018-04-15T11:45:45.053Z,13.10
2018-04-15T11:48:13.290Z,13.00
2018-04-15T11:50:41.560Z,13.10
2018-04-15T11:53:10.570Z,13.00
2018-04-15T11:55:39.578Z,13.10
2018-04-15T11:58:07.820Z,13.10
2018-04-15T12:00:36.046Z,13.20
2018-04-15T12:03:05.034Z,13.20
2018-04-15T12:05:33.268Z,13.20
2018-04-15T12:08:01.498Z,13.20
2018-04-15T12:10:29.761Z,13.20
2018-04-15T12:12:58.005Z,13.10
2018-04-15T12:15:27.006Z,13.10
2018-04-15T12:17:56.017Z,13.10
2018-04-15T12:20:25.011Z,13.10
2018-04-15T12:22:53.336Z,13.10
2018-04-15T12:25:22.353Z,13.10
2018-04-15T12:27:50.574Z,13.10
2018-04-15T12:30:18.809Z,13.10
2018-04-15T12:32:47.033Z,13.10
2018-04-15T12:35:15.273Z,13.20
2018-04-15T12:37:44.288Z,13.20
2018-04-15T12:40:12.513Z,13.10
2018-04-15T12:42:40.785Z,13.10
2018-04-15T12:45:09.012Z,13.10
2018-04-15T12:47:37.241Z,13.10
2018-04-15T12:50:05.469Z,13.10
2018-04-15T12:52:33.786Z,13.10
2018-04-15T12:55:02.042Z,13.20
2018-04-15T12:57:30.272Z,13.20
2018-04-15T12:59:59.257Z,13.10
2018-04-15T13:02:27.509Z,13.10
2018-04-15T13:04:55.840Z,13.20
2018-04-15T13:07:24.085Z,13.20
2018-04-15T13:09:52.379Z,13.20
2018-04-15T13:12:20.725Z,13.20
2018-04-15T13:14:50.489Z,13.20
2018-04-15T13:17:18.724Z,13.20
2018-04-15T13:19:46.954Z,13.30
2018-04-15T13:22:15.241Z,13.20
2018-04-15T13:24:43.438Z,13.30
2018-04-15T13:27:11.673Z,13.20
2018-04-15T13:29:39.937Z,13.30
2018-04-15T13:32:08.165Z,13.30
2018-04-15T13:34:37.160Z,13.40
2018-04-15T13:37:05.420Z,13.40
2018-04-15T13:39:33.712Z,13.40
2018-04-15T13:42:01.983Z,13.30
2018-04-15T13:44:30.190Z,13.30
2018-04-15T13:46:58.443Z,13.30
2018-04-15T13:49:26.653Z,13.30
2018-04-15T13:51:54.881Z,13.30
2018-04-15T13:54:23.176Z,13.30
2018-04-15T13:56:52.341Z,13.30
2018-04-15T13:59:20.607Z,13.40
2018-04-15T14:01:48.827Z,13.40
2018-04-15T14:04:17.062Z,13.50
2018-04-15T14:06:45.357Z,13.50
2018-04-15T14:09:14.085Z,13.50
2018-04-15T14:11:42.381Z,13.50
2018-04-15T14:14:10.577Z,13.50
2018-04-15T14:16:38.884Z,13.60
2018-04-15T14:19:07.114Z,13.50
2018-04-15T14:21:35.378Z,13.60
2018-04-15T14:24:03.625Z,13.60
2018-04-15T14:26:31.894Z,13.70
2018-04-15T14:29:00.083Z,13.70
2018-04-15T14:31:29.891Z,13.70
2018-04-15T14:33:58.126Z,13.70
2018-04-15T14:36:26.363Z,13.70
2018-04-15T14:38:55.701Z,13.80
2018-04-15T14:41:23.936Z,13.80
2018-04-15T14:43:52.208Z,13.80
2018-04-15T14:46:21.253Z,13.80
2018-04-15T14:48:49.536Z,13.80
2018-04-15T14:51:17.755Z,13.80
2018-04-15T14:53:46.079Z,13.80
2018-04-15T14:56:15.232Z,13.80
2018-04-15T14:58:43.454Z,13.80
2018-04-15T15:01:11.685Z,13.70
2018-04-15T15:03:39.941Z,13.60
2018-04-15T15:06:08.156Z,13.70
2018-04-15T15:08:36.390Z,13.90
2018-04-15T15:11:04.613Z,13.90
2018-04-15T15:13:32.865Z,13.80
2018-04-15T15:16:01.073Z,13.90
2018-04-15T15:18:29.489Z,13.80
2018-04-15T15:20:57.711Z,13.90
2018-04-15T15:23:26.707Z,13.90
2018-04-15T15:25:55.864Z,13.90
2018-04-15T15:28:24.119Z,13.80
2018-04-15T15:30:52.338Z,13.90
2018-04-15T15:33:20.650Z,13.90
2018-04-15T15:35:48.918Z,13.80
2018-04-15T15:38:17.122Z,13.80
2018-04-15T15:40:45.366Z,13.80
2018-04-15T15:43:14.359Z,13.80
2018-04-15T15:45:43.888Z,13.80
2018-04-15T15:48:13.034Z,13.80
2018-04-15T15:50:41.277Z,13.90
2018-04-15T15:56:22.459Z,14.10
2018-04-15T15:59:12.205Z,14.30
2018-04-15T16:01:44.753Z,14.30
2018-04-15T16:04:13.685Z,14.20
2018-04-15T16:06:45.366Z,14.20
2018-04-15T16:09:14.519Z,14.00
2018-04-15T16:14:19.517Z,14.00
2018-04-15T16:16:48.496Z,14.10
2018-04-15T16:19:16.750Z,14.00
2018-04-15T16:21:46.176Z,14.10
2018-04-15T16:24:14.429Z,14.00
2018-04-15T16:26:44.364Z,14.10
2018-04-15T16:29:12.577Z,13.90
2018-04-15T16:31:41.798Z,14.00
2018-04-15T16:34:11.928Z,14.10
2018-04-15T16:36:43.584Z,14.40
2018-04-15T16:39:16.074Z,14.40
2018-04-15T16:41:44.685Z,14.50
2018-04-15T16:44:12.962Z,14.30
2018-04-15T16:46:42.721Z,14.20
2018-04-15T16:49:11.941Z,14.20
2018-04-15T16:51:40.158Z,14.20
2018-04-15T16:54:11.558Z,14.10
2018-04-15T16:56:39.792Z,14.10
2018-04-15T16:59:12.141Z,14.10
2018-04-15T17:01:42.393Z,14.10
2018-04-15T17:04:10.600Z,14.20
2018-04-15T17:06:38.821Z,14.00
2018-04-15T17:09:08.307Z,14.20
2018-04-15T17:11:36.561Z,14.20
2018-04-15T17:14:04.784Z,14.20
2018-04-15T17:16:34.622Z,14.20
2018-04-15T17:19:02.841Z,14.20
2018-04-15T17:21:31.092Z,14.20
2018-04-15T17:23:59.313Z,14.10
2018-04-15T17:26:27.572Z,14.10
2018-04-15T17:28:55.836Z,14.10
2018-04-15T17:31:24.148Z,14.20
2018-04-15T17:33:52.409Z,14.20
2018-04-15T17:36:20.633Z,14.30
2018-04-15T17:38:48.885Z,14.20
2018-04-15T17:41:17.113Z,14.10
2018-04-15T17:43:46.124Z,14.10
2018-04-15T17:46:15.152Z,14.20
2018-04-15T17:48:43.393Z,14.20
2018-04-15T17:51:11.633Z,14.10
2018-04-15T17:53:39.853Z,14.20
2018-04-15T17:56:09.412Z,14.10
2018-04-15T17:58:39.290Z,14.10
2018-04-15T18:01:07.486Z,14.10
2018-04-15T18:03:36.381Z,14.30
2018-04-15T18:06:05.893Z,14.40
2018-04-15T18:08:34.133Z,14.20
2018-04-15T18:11:02.351Z,14.30
2018-04-15T18:13:30.623Z,14.30
2018-04-15T18:15:58.820Z,14.40
2018-04-15T18:18:27.105Z,14.30
2018-04-15T18:20:55.369Z,14.20
2018-04-15T18:23:26.584Z,14.20
2018-04-15T18:25:54.974Z,14.10
2018-04-15T18:28:23.238Z,14.20
2018-04-15T18:30:51.592Z,14.20
2018-04-15T18:33:19.834Z,14.10
2018-04-15T18:35:48.122Z,14.10
2018-04-15T18:38:16.370Z,14.10
2018-04-15T18:40:44.634Z,14.20
2018-04-15T18:43:12.889Z,14.30
2018-04-15T18:45:41.115Z,14.30
2018-04-15T18:48:09.358Z,14.30
2018-04-15T18:50:37.598Z,14.60
2018-04-15T18:53:06.725Z,14.50
2018-04-15T18:55:38.835Z,14.30
2018-04-15T18:58:07.828Z,14.20
2018-04-15T19:00:36.829Z,14.20
2018-04-15T19:03:05.084Z,14.30
2018-04-15T19:05:34.103Z,14.30
2018-04-15T19:08:03.127Z,14.20
2018-04-15T19:10:32.129Z,14.20
2018-04-15T19:13:01.126Z,14.10
2018-04-15T19:15:30.118Z,14.10
2018-04-15T19:18:01.076Z,14.10
2018-04-15T19:20:29.375Z,14.10
2018-04-15T19:22:58.487Z,14.10
2018-04-15T19:25:26.686Z,14.10
2018-04-15T19:27:55.921Z,14.10
2018-04-15T19:30:24.170Z,14.10
2018-04-15T19:32:53.164Z,14.10
2018-04-15T19:35:22.182Z,14.00
2018-04-15T19:37:50.442Z,14.00
2018-04-15T19:40:19.928Z,14.00
2018-04-15T19:42:54.117Z,14.00
2018-04-15T19:45:22.997Z,14.00
2018-04-15T19:47:51.256Z,14.00
2018-04-15T19:50:19.533Z,14.00
2018-04-15T19:52:48.864Z,14.10
2018-04-15T19:55:17.122Z,14.10
2018-04-15T19:57:45.352Z,14.00
2018-04-15T20:00:13.621Z,14.00
2018-04-15T20:02:41.910Z,14.00
2018-04-15T20:05:10.172Z,14.00
2018-04-15T20:07:39.189Z,14.00
2018-04-15T20:10:08.939Z,14.00
2018-04-15T20:12:37.153Z,14.00
2018-04-15T20:15:05.378Z,14.00
2018-04-15T20:17:33.604Z,14.00
2018-04-15T20:20:01.872Z,14.00
2018-04-15T20:22:30.086Z,14.00
2018-04-15T20:24:58.413Z,14.00
2018-04-15T20:27:26.641Z,14.00
2018-04-15T20:29:54.897Z,14.00
2018-04-15T20:32:23.136Z,13.90
2018-04-15T20:34:51.374Z,13.80
2018-04-15T20:37:19.603Z,13.80
2018-04-15T20:39:47.830Z,13.80
2018-04-15T20:42:16.871Z,13.70
2018-04-15T20:44:45.096Z,13.70
2018-04-15T20:47:13.323Z,13.70
2018-04-15T20:49:42.861Z,13.70
2018-04-15T20:52:11.081Z,13.70
2018-04-15T20:54:39.301Z,13.70
2018-04-15T20:57:09.231Z,13.90
2018-04-15T20:59:38.225Z,13.80
2018-04-15T21:02:06.472Z,13.80
2018-04-15T21:04:34.704Z,13.70
2018-04-15T21:07:02.965Z,13.60
2018-04-15T21:09:31.226Z,13.60
2018-04-15T21:11:59.502Z,13.50
2018-04-15T21:14:27.694Z,13.50
2018-04-15T21:16:56.565Z,13.40
2018-04-15T21:19:25.737Z,13.30
2018-04-15T21:21:54.837Z,13.30
2018-04-15T21:24:23.126Z,13.30
2018-04-15T21:26:51.379Z,13.20
2018-04-15T21:29:20.385Z,13.20
2018-04-15T21:31:48.646Z,13.20
2018-04-15T21:34:16.918Z,13.20
2018-04-15T21:36:45.133Z,13.10
2018-04-15T21:39:14.130Z,12.90
2018-04-15T21:41:42.357Z,12.90
2018-04-15T21:44:10.584Z,12.80
2018-04-15T21:46:40.330Z,12.80
2018-04-15T21:49:08.574Z,12.80
2018-04-15T21:51:36.823Z,12.90
2018-04-15T21:54:05.013Z,13.00
2018-04-15T21:56:34.005Z,12.90
2018-04-15T21:59:02.993Z,12.90
2018-04-15T22:01:31.229Z,12.90
2018-04-15T22:03:59.455Z,12.90
2018-04-15T22:06:27.689Z,12.90
2018-04-15T22:08:55.949Z,12.90
2018-04-15T22:11:35.953Z,12.90
2018-04-15T22:14:04.182Z,12.90
2018-04-15T22:16:32.417Z,12.90
2018-04-15T22:19:00.659Z,12.90
2018-04-15T22:21:28.918Z,12.80
2018-04-15T22:23:57.143Z,12.90
2018-04-15T22:26:25.378Z,12.90
2018-04-15T22:28:53.637Z,12.80
2018-04-15T22:31:21.858Z,12.80
2018-04-15T22:33:50.110Z,12.90
2018-04-15T22:36:18.349Z,12.80
2018-04-15T22:38:46.577Z,12.80
2018-04-15T22:41:14.789Z,12.80
2018-04-15T22:43:43.813Z,12.70
2018-04-15T22:46:12.058Z,12.70
2018-04-15T22:48:45.104Z,12.80
2018-04-15T22:51:13.329Z,12.80
2018-04-15T22:53:41.553Z,12.70
2018-04-15T22:56:09.800Z,12.60
2018-04-15T22:58:43.743Z,12.60
2018-04-15T23:01:11.985Z,12.70
2018-04-15T23:03:40.229Z,12.70
2018-04-15T23:06:08.440Z,12.70
2018-04-15T23:08:37.441Z,12.70
2018-04-15T23:11:06.425Z,12.70
2018-04-15T23:13:34.657Z,12.70
2018-04-15T23:16:02.869Z,12.80
2018-04-15T23:18:31.111Z,12.80
2018-04-15T23:21:00.129Z,12.80
2018-04-15T23:23:29.120Z,12.80
2018-04-15T23:25:58.113Z,12.80
2018-04-15T23:28:26.333Z,12.80
2018-04-15T23:30:54.582Z,12.80
2018-04-15T23:33:22.817Z,12.70
2018-04-15T23:35:51.044Z,12.80
2018-04-15T23:38:19.282Z,12.80
2018-04-15T23:40:47.542Z,12.80
2018-04-15T23:43:15.762Z,12.70
2018-04-15T23:45:44.003Z,12.80
2018-04-15T23:48:12.225Z,12.70
2018-04-15T23:50:40.454Z,12.70
2018-04-15T23:53:08.681Z,12.70
2018-04-15T23:55:36.909Z,12.70
2018-04-15T23:58:05.164Z,12.80
